Terminal Aerodrome Forecast
Issued by NWS

Home | Current Version | Previous Version | Text Only | Print | Product List | Glossary Off
Versions: 1 2 3 4 5 6 7 8 9 10 11 12

000
FTUS45 KGGW 241727
TAFOLF
TAF
KOLF 241727Z 2418/2518 00000KT P6SM SKC
     FM242200 18007KT P6SM FEW200
     FM250400 13009KT P6SM BKN150 WS020/18035KT
     FM251100 VRB06KT P6SM BKN090=

USA.gov is the U.S. government's official web portal to all federal, state and local government web resources and services.